createdAt,value
2019-04-26T00:00:48.925Z,13.18
2019-04-26T00:05:56.667Z,13.20
2019-04-26T00:08:23.387Z,13.18
2019-04-26T00:11:09.648Z,13.16
2019-04-26T00:16:41.531Z,13.15
2019-04-26T00:19:08.303Z,13.14
2019-04-26T00:21:36.170Z,13.14
2019-04-26T00:24:03.235Z,13.12
2019-04-26T00:26:30.292Z,13.09
2019-04-26T00:28:57.066Z,13.09
2019-04-26T00:31:23.841Z,13.10
2019-04-26T00:33:50.587Z,13.11
2019-04-26T00:36:17.357Z,13.08
2019-04-26T00:38:44.115Z,13.05
2019-04-26T00:41:12.653Z,13.01
2019-04-26T00:43:39.453Z,12.97
2019-04-26T00:46:06.203Z,12.92
2019-04-26T00:48:32.962Z,12.87
2019-04-26T00:50:59.977Z,12.83
2019-04-26T00:53:26.930Z,12.79
2019-04-26T00:55:53.619Z,12.79
2019-04-26T00:58:20.461Z,12.83
2019-04-26T01:00:47.462Z,12.84
2019-04-26T01:03:15.222Z,12.85
2019-04-26T01:05:42.036Z,12.87
2019-04-26T01:08:08.762Z,12.87
2019-04-26T01:10:35.493Z,12.89
2019-04-26T01:13:02.102Z,12.87
2019-04-26T01:15:28.725Z,12.83
2019-04-26T01:17:55.360Z,12.79
2019-04-26T01:20:22.573Z,12.79
2019-04-26T01:22:49.706Z,12.78
2019-04-26T01:25:37.782Z,12.78
2019-04-26T01:28:04.486Z,12.76
2019-04-26T01:30:31.246Z,12.75
2019-04-26T01:32:57.874Z,12.75
2019-04-26T01:35:33.457Z,12.74
2019-04-26T01:38:00.230Z,12.74
2019-04-26T01:40:28.727Z,12.74
2019-04-26T01:43:10.339Z,12.75
2019-04-26T01:45:42.194Z,12.76
2019-04-26T01:48:31.323Z,12.79
2019-04-26T01:50:58.055Z,12.79
2019-04-26T01:53:24.705Z,12.78
2019-04-26T01:55:51.407Z,12.77
2019-04-26T01:58:18.130Z,12.80
2019-04-26T02:01:13.376Z,12.86
2019-04-26T02:03:39.999Z,12.91
2019-04-26T02:06:06.979Z,12.95
2019-04-26T02:08:33.671Z,13.00
2019-04-26T02:11:00.317Z,13.03
2019-04-26T02:13:27.083Z,13.06
2019-04-26T02:15:53.850Z,13.08
2019-04-26T02:18:20.617Z,13.09
2019-04-26T02:21:04.351Z,13.10
2019-04-26T02:24:02.496Z,13.08
2019-04-26T02:26:36.669Z,13.03
2019-04-26T02:29:03.957Z,12.98
2019-04-26T02:31:31.548Z,12.94
2019-04-26T02:33:59.281Z,12.88
2019-04-26T02:36:44.937Z,12.82
2019-04-26T02:38:54.648Z,12.77
2019-04-26T02:41:21.412Z,12.72
2019-04-26T02:43:49.286Z,12.68
2019-04-26T02:46:22.351Z,12.66
2019-04-26T02:49:23.561Z,12.65
2019-04-26T02:51:54.748Z,12.62
2019-04-26T02:54:24.610Z,12.54
2019-04-26T02:56:51.395Z,12.51
2019-04-26T02:59:25.961Z,12.46
2019-04-26T03:01:53.311Z,12.38
2019-04-26T03:04:20.417Z,12.31
2019-04-26T03:07:02.361Z,12.25
2019-04-26T03:09:15.738Z,12.20
2019-04-26T03:11:43.509Z,12.16
2019-04-26T03:14:42.085Z,12.08
2019-04-26T03:17:32.510Z,12.02
2019-04-26T03:20:01.320Z,11.96
2019-04-26T03:22:37.351Z,11.92
2019-04-26T03:25:12.823Z,11.90
2019-04-26T03:27:45.272Z,11.84
2019-04-26T03:30:33.367Z,11.84
2019-04-26T03:33:10.956Z,11.81
2019-04-26T03:36:03.447Z,11.78
2019-04-26T03:38:53.110Z,11.76
2019-04-26T03:41:25.033Z,11.77
2019-04-26T03:43:58.291Z,11.76
2019-04-26T03:46:28.824Z,11.75
2019-04-26T03:49:01.655Z,11.80
2019-04-26T03:51:45.457Z,11.82
2019-04-26T03:54:14.171Z,11.81
2019-04-26T03:57:03.227Z,11.80
2019-04-26T03:59:50.648Z,11.77
2019-04-26T04:02:33.322Z,11.76
2019-04-26T04:05:24.711Z,11.77
2019-04-26T04:07:51.632Z,11.75
2019-04-26T04:10:21.000Z,11.76
2019-04-26T04:13:09.346Z,11.73
2019-04-26T04:15:42.555Z,11.72
2019-04-26T04:18:13.093Z,11.70
2019-04-26T04:21:05.868Z,11.71
2019-04-26T04:23:47.219Z,11.71
2019-04-26T04:26:16.938Z,11.72
2019-04-26T04:28:49.825Z,11.74
2019-04-26T04:31:20.731Z,11.76
2019-04-26T04:33:49.670Z,11.72
2019-04-26T04:36:19.876Z,11.73
2019-04-26T04:39:12.300Z,11.76
2019-04-26T04:41:45.139Z,11.81
2019-04-26T04:44:21.456Z,11.83
2019-04-26T04:47:24.564Z,11.85
2019-04-26T04:49:52.708Z,11.76
2019-04-26T04:52:21.787Z,11.81
2019-04-26T04:55:03.512Z,11.82
2019-04-26T04:57:29.520Z,11.82
2019-04-26T05:00:02.849Z,11.86
2019-04-26T05:02:59.501Z,11.92
2019-04-26T05:05:49.722Z,12.01
2019-04-26T05:08:37.115Z,12.29
2019-04-26T05:11:12.281Z,12.56
2019-04-26T05:13:41.158Z,12.73
2019-04-26T05:16:42.165Z,12.85
2019-04-26T05:19:30.909Z,12.97
2019-04-26T05:22:03.465Z,13.18
2019-04-26T05:24:37.306Z,13.38
2019-04-26T05:27:38.065Z,13.48
2019-04-26T05:30:37.469Z,13.57
2019-04-26T05:33:23.427Z,13.72
2019-04-26T05:36:18.484Z,13.87
2019-04-26T05:39:06.128Z,13.95
2019-04-26T05:41:55.680Z,14.09
2019-04-26T05:44:27.243Z,14.25
2019-04-26T05:47:22.641Z,14.42
2019-04-26T05:50:26.579Z,14.64
2019-04-26T05:53:13.031Z,14.84
2019-04-26T05:56:30.379Z,15.04
2019-04-26T05:59:07.467Z,15.23
2019-04-26T06:02:12.031Z,15.37
2019-04-26T06:04:57.221Z,15.40
2019-04-26T06:07:47.147Z,15.43
2019-04-26T06:10:33.408Z,15.47
2019-04-26T06:13:29.640Z,15.30
2019-04-26T06:16:10.737Z,14.95
2019-04-26T06:18:57.325Z,14.84
2019-04-26T06:21:37.559Z,14.55
2019-04-26T06:24:29.712Z,14.53
2019-04-26T06:27:13.549Z,14.42
2019-04-26T06:29:40.398Z,14.16
2019-04-26T06:32:11.307Z,13.88
2019-04-26T06:34:42.192Z,13.70
2019-04-26T06:37:24.529Z,13.44
2019-04-26T06:40:04.447Z,13.28
2019-04-26T06:42:54.770Z,13.12
2019-04-26T06:45:45.430Z,12.96
2019-04-26T06:48:33.128Z,12.87
2019-04-26T06:51:05.069Z,12.71
2019-04-26T06:53:37.379Z,12.59
2019-04-26T06:56:18.162Z,12.51
2019-04-26T06:59:10.025Z,12.51
2019-04-26T07:01:46.593Z,12.48
2019-04-26T07:04:17.497Z,12.60
2019-04-26T07:06:49.456Z,12.60
2019-04-26T07:09:16.079Z,12.55
2019-04-26T07:12:25.407Z,12.66
2019-04-26T07:14:57.666Z,12.69
2019-04-26T07:17:42.299Z,12.81
2019-04-26T07:20:31.449Z,12.95
2019-04-26T07:23:32.028Z,13.14
2019-04-26T07:26:20.931Z,13.23
2019-04-26T07:29:04.700Z,13.18
2019-04-26T07:31:50.975Z,13.11
2019-04-26T07:34:22.695Z,13.00
2019-04-26T07:37:15.124Z,13.13
2019-04-26T07:40:32.821Z,13.28
2019-04-26T07:43:19.863Z,13.33
2019-04-26T07:46:18.049Z,13.48
2019-04-26T07:48:53.905Z,13.68
2019-04-26T07:51:38.373Z,13.65
2019-04-26T07:54:23.164Z,13.68
2019-04-26T07:57:05.259Z,13.77
2019-04-26T07:59:54.231Z,13.85
2019-04-26T08:02:49.944Z,13.99
2019-04-26T08:05:18.917Z,14.18
2019-04-26T08:07:48.670Z,14.40
2019-04-26T08:10:19.108Z,14.35
2019-04-26T08:12:48.293Z,14.27
2019-04-26T08:15:40.461Z,14.32
2019-04-26T08:18:15.236Z,14.37
2019-04-26T08:20:48.481Z,14.21
2019-04-26T08:23:38.117Z,14.28
2019-04-26T08:25:46.827Z,14.38
2019-04-26T08:28:14.299Z,14.47
2019-04-26T08:30:44.862Z,14.61
2019-04-26T08:33:13.506Z,14.56
2019-04-26T08:35:44.359Z,14.65
2019-04-26T08:38:15.927Z,14.55
2019-04-26T08:40:38.376Z,14.45
2019-04-26T08:43:30.835Z,14.51
2019-04-26T08:46:13.104Z,14.73
2019-04-26T08:48:58.118Z,14.89
2019-04-26T08:51:24.994Z,14.93
2019-04-26T08:53:51.853Z,15.10
2019-04-26T08:56:20.451Z,15.35
2019-04-26T08:58:48.532Z,15.33
2019-04-26T09:01:33.304Z,15.30
2019-04-26T09:04:06.866Z,15.39
2019-04-26T09:06:39.985Z,15.18
2019-04-26T09:09:14.314Z,15.08
2019-04-26T09:11:41.136Z,15.28
2019-04-26T09:14:07.948Z,15.47
2019-04-26T09:16:34.611Z,15.47
2019-04-26T09:19:01.314Z,15.56
2019-04-26T09:21:37.360Z,15.58
2019-04-26T09:24:25.103Z,15.59
2019-04-26T09:27:11.635Z,15.42
2019-04-26T09:30:06.812Z,15.54
2019-04-26T09:33:01.951Z,15.69
2019-04-26T09:35:27.292Z,15.88
2019-04-26T09:37:53.923Z,16.15
2019-04-26T09:40:22.969Z,15.90
2019-04-26T09:43:16.706Z,16.00
2019-04-26T09:46:01.613Z,16.00
2019-04-26T09:48:50.843Z,16.17
2019-04-26T09:51:17.787Z,16.12
2019-04-26T09:53:44.799Z,16.18
2019-04-26T09:56:11.570Z,15.99
2019-04-26T09:58:38.280Z,15.83
2019-04-26T10:01:06.297Z,15.91
2019-04-26T10:03:34.383Z,16.02
2019-04-26T10:06:01.193Z,16.09
2019-04-26T10:08:27.837Z,16.28
2019-04-26T10:10:54.575Z,16.90
2019-04-26T10:13:28.665Z,17.40
2019-04-26T10:16:14.823Z,17.24
2019-04-26T10:18:44.329Z,17.75
2019-04-26T10:21:11.071Z,18.04
2019-04-26T10:23:37.688Z,17.81
2019-04-26T10:26:04.335Z,18.19
2019-04-26T10:28:31.078Z,18.35
2019-04-26T10:30:57.763Z,18.22
2019-04-26T10:33:24.391Z,18.22
2019-04-26T10:35:52.527Z,17.68
2019-04-26T10:38:23.667Z,17.75
2019-04-26T10:40:48.210Z,17.70
2019-04-26T10:43:14.863Z,17.73
2019-04-26T10:45:41.600Z,17.47
2019-04-26T10:48:09.542Z,18.11
2019-04-26T10:50:36.891Z,17.76
2019-04-26T10:53:14.275Z,17.48
2019-04-26T10:56:20.299Z,16.57
2019-04-26T10:58:57.086Z,16.69
2019-04-26T11:01:23.805Z,16.28
2019-04-26T11:03:50.465Z,16.57
2019-04-26T11:06:17.128Z,16.20
2019-04-26T11:08:43.866Z,16.21
2019-04-26T11:11:10.546Z,15.92
2019-04-26T11:13:37.241Z,15.65
2019-04-26T11:16:07.061Z,15.28
2019-04-26T11:18:32.460Z,15.46
2019-04-26T11:20:59.110Z,15.30
2019-04-26T11:23:25.758Z,15.18
2019-04-26T11:25:52.493Z,15.28
2019-04-26T11:28:21.353Z,15.09
2019-04-26T11:30:57.000Z,15.05
2019-04-26T11:33:28.967Z,14.91
2019-04-26T11:35:55.722Z,14.78
2019-04-26T11:38:22.533Z,14.41
2019-04-26T11:40:58.487Z,14.53
2019-04-26T11:43:24.164Z,14.55
2019-04-26T11:45:50.827Z,14.44
2019-04-26T11:50:57.372Z,14.44
2019-04-26T11:53:24.006Z,14.52
2019-04-26T11:55:50.711Z,14.32
2019-04-26T11:58:17.955Z,14.03
2019-04-26T12:04:02.880Z,13.82
2019-04-26T12:06:49.069Z,13.84
2019-04-26T12:09:20.852Z,13.71
2019-04-26T12:11:51.006Z,13.67
2019-04-26T12:14:22.546Z,13.50
2019-04-26T12:16:51.488Z,13.41
2019-04-26T12:19:27.491Z,13.33
2019-04-26T12:21:54.149Z,13.32
2019-04-26T12:24:20.803Z,13.24
2019-04-26T12:26:47.511Z,13.15
2019-04-26T12:29:14.789Z,13.20
2019-04-26T12:31:49.454Z,13.15
2019-04-26T12:34:18.007Z,13.05
2019-04-26T12:36:54.433Z,13.00
2019-04-26T12:41:59.331Z,12.72
2019-04-26T12:49:48.719Z,12.35
2019-04-26T12:52:17.543Z,12.21
2019-04-26T12:54:50.624Z,12.15
2019-04-26T12:57:17.265Z,12.17
2019-04-26T12:59:44.658Z,12.10
2019-04-26T13:02:11.421Z,12.10
2019-04-26T13:04:40.492Z,12.04
2019-04-26T13:07:23.586Z,11.89
2019-04-26T13:13:00.818Z,11.70
2019-04-26T13:16:06.507Z,11.37
2019-04-26T13:18:33.328Z,11.09
2019-04-26T13:21:02.925Z,10.81
2019-04-26T13:23:35.064Z,10.78
2019-04-26T13:26:01.789Z,10.63
2019-04-26T13:28:28.560Z,10.47
2019-04-26T13:30:55.263Z,10.30
2019-04-26T13:33:23.145Z,10.16
2019-04-26T13:36:02.298Z,10.07
2019-04-26T13:38:29.036Z,9.96
2019-04-26T13:40:59.452Z,9.92
2019-04-26T13:43:34.078Z,9.90
2019-04-26T13:46:20.259Z,9.75
2019-04-26T13:49:06.407Z,9.73
2019-04-26T13:51:33.684Z,9.68
2019-04-26T13:54:00.350Z,9.67
2019-04-26T13:56:26.952Z,9.65
2019-04-26T13:58:54.229Z,9.69
2019-04-26T14:01:28.280Z,9.78
2019-04-26T14:03:55.004Z,9.79
2019-04-26T14:06:21.648Z,9.68
2019-04-26T14:08:48.499Z,9.56
2019-04-26T14:11:15.115Z,9.60
2019-04-26T14:13:41.781Z,9.62
2019-04-26T14:16:08.499Z,9.63
2019-04-26T14:18:38.941Z,9.63
2019-04-26T14:24:52.969Z,9.49
2019-04-26T14:27:49.921Z,9.46
2019-04-26T14:30:21.320Z,9.50
2019-04-26T14:32:48.179Z,9.51
2019-04-26T14:35:15.784Z,9.40
2019-04-26T14:37:53.279Z,9.42
2019-04-26T14:40:43.097Z,9.38
2019-04-26T14:43:18.319Z,9.38
2019-04-26T14:45:55.764Z,9.31
2019-04-26T14:48:35.792Z,9.22
2019-04-26T14:51:08.234Z,9.18
2019-04-26T14:53:41.071Z,9.13
2019-04-26T14:56:07.767Z,9.13
2019-04-26T14:58:34.531Z,9.18
2019-04-26T15:01:03.193Z,9.11
2019-04-26T15:03:57.087Z,9.05
2019-04-26T15:06:32.215Z,8.96
2019-04-26T15:08:58.908Z,8.97
2019-04-26T15:11:25.578Z,8.86
2019-04-26T15:13:52.241Z,8.79
2019-04-26T15:16:22.027Z,8.66
2019-04-26T15:18:47.486Z,8.55
2019-04-26T15:21:14.133Z,8.39
2019-04-26T15:23:40.799Z,8.36
2019-04-26T15:26:07.530Z,8.20
2019-04-26T15:28:34.151Z,8.11
2019-04-26T15:31:02.339Z,8.00
2019-04-26T15:33:44.189Z,7.99
2019-04-26T15:36:17.719Z,7.97
2019-04-26T15:44:42.917Z,8.04
2019-04-26T15:47:29.126Z,8.05
2019-04-26T15:50:03.889Z,8.06
2019-04-26T15:52:38.304Z,8.06
2019-04-26T15:55:06.050Z,8.02
2019-04-26T15:57:43.949Z,7.95
2019-04-26T16:00:12.446Z,7.82
2019-04-26T16:02:45.626Z,7.73
2019-04-26T16:05:12.433Z,7.75
2019-04-26T16:07:46.806Z,7.77
2019-04-26T16:10:34.723Z,7.77
2019-04-26T16:13:18.199Z,7.80
2019-04-26T16:15:43.621Z,7.82
2019-04-26T16:18:19.178Z,7.73
2019-04-26T16:20:53.465Z,7.77
2019-04-26T16:23:38.362Z,7.72
2019-04-26T16:26:08.373Z,7.69
2019-04-26T16:29:00.616Z,7.63
2019-04-26T16:31:47.136Z,7.69
2019-04-26T16:36:54.136Z,7.77
2019-04-26T16:39:20.875Z,7.76
2019-04-26T16:41:47.611Z,7.72
2019-04-26T16:44:14.226Z,7.70
2019-04-26T16:46:40.877Z,7.70
2019-04-26T16:49:11.699Z,7.63
2019-04-26T16:51:43.638Z,7.61
2019-04-26T16:54:21.875Z,7.55
2019-04-26T16:56:52.646Z,7.52
2019-04-26T16:59:27.132Z,7.53
2019-04-26T17:01:53.890Z,7.55
2019-04-26T17:04:29.053Z,7.55
2019-04-26T17:06:55.173Z,7.53
2019-04-26T17:09:23.624Z,7.50
2019-04-26T17:12:00.316Z,7.42
2019-04-26T17:14:27.029Z,7.44
2019-04-26T17:16:53.735Z,7.46
2019-04-26T17:19:20.377Z,7.56
2019-04-26T17:22:06.469Z,7.60
2019-04-26T17:24:47.207Z,7.64
2019-04-26T17:27:14.942Z,7.58
2019-04-26T17:29:42.330Z,7.60
2019-04-26T17:32:13.092Z,7.69
2019-04-26T17:34:40.321Z,7.76
2019-04-26T17:37:11.755Z,7.81
2019-04-26T17:39:34.824Z,7.84
2019-04-26T17:42:01.716Z,7.87
2019-04-26T17:44:28.513Z,7.86
2019-04-26T17:46:56.905Z,7.85
2019-04-26T17:49:27.411Z,7.77
2019-04-26T17:51:57.823Z,7.77
2019-04-26T17:54:41.410Z,7.79
2019-04-26T17:56:51.534Z,7.84
2019-04-26T17:59:32.735Z,7.98
2019-04-26T18:01:51.860Z,7.97
2019-04-26T18:04:15.517Z,7.90
2019-04-26T18:06:45.378Z,7.84
2019-04-26T18:09:18.574Z,7.87
2019-04-26T18:11:41.098Z,7.87
2019-04-26T18:14:20.551Z,7.81
2019-04-26T18:16:38.269Z,7.84
2019-04-26T18:19:36.600Z,7.82
2019-04-26T18:22:23.175Z,7.86
2019-04-26T18:24:49.985Z,7.81
2019-04-26T18:27:16.731Z,7.73
2019-04-26T18:29:43.750Z,7.73
2019-04-26T18:32:10.427Z,7.73
2019-04-26T18:34:40.421Z,7.71
2019-04-26T18:37:07.474Z,7.68
2019-04-26T18:39:34.235Z,7.72
2019-04-26T18:42:02.899Z,7.74
2019-04-26T18:44:38.392Z,7.69
2019-04-26T18:47:06.182Z,7.69
2019-04-26T18:49:33.018Z,7.65
2019-04-26T18:51:59.790Z,7.64
2019-04-26T18:54:32.827Z,7.65
2019-04-26T18:57:00.979Z,7.68
2019-04-26T18:59:28.026Z,7.69
2019-04-26T19:01:54.864Z,7.71
2019-04-26T19:04:23.501Z,7.73
2019-04-26T19:06:50.251Z,7.70
2019-04-26T19:09:18.908Z,7.65
2019-04-26T19:11:48.493Z,7.64
2019-04-26T19:14:33.841Z,7.58
2019-04-26T19:17:30.144Z,7.53
2019-04-26T19:20:25.251Z,7.46
2019-04-26T19:22:59.094Z,7.42
2019-04-26T19:25:29.721Z,7.38
2019-04-26T19:27:54.323Z,7.35
2019-04-26T19:30:21.715Z,7.34
2019-04-26T19:32:48.540Z,7.31
2019-04-26T19:35:15.323Z,7.28
2019-04-26T19:37:43.372Z,7.25
2019-04-26T19:40:12.237Z,7.21
2019-04-26T19:42:38.683Z,7.20
2019-04-26T19:45:13.766Z,7.18
2019-04-26T19:47:46.671Z,7.17
2019-04-26T19:50:50.207Z,7.12
2019-04-26T19:53:24.985Z,7.07
2019-04-26T19:56:10.079Z,7.02
2019-04-26T19:58:37.090Z,6.97
2019-04-26T20:01:04.332Z,6.88
2019-04-26T20:03:32.020Z,6.83
2019-04-26T20:05:59.742Z,6.80
2019-04-26T20:08:29.307Z,6.74
2019-04-26T20:10:54.918Z,6.68
2019-04-26T20:13:22.032Z,6.65
2019-04-26T20:15:48.778Z,6.61
2019-04-26T20:18:17.459Z,6.58
2019-04-26T20:20:44.058Z,6.57
2019-04-26T20:23:12.268Z,6.55
2019-04-26T20:25:39.101Z,6.54
2019-04-26T20:28:05.711Z,6.52
2019-04-26T20:30:51.853Z,6.51
2019-04-26T20:33:18.578Z,6.52
2019-04-26T20:35:45.208Z,6.53
2019-04-26T20:38:11.973Z,6.57
2019-04-26T20:40:38.690Z,6.62
2019-04-26T20:43:06.921Z,6.66
2019-04-26T20:45:41.362Z,6.69
2019-04-26T20:48:02.435Z,6.74
2019-04-26T20:50:35.274Z,6.75
2019-04-26T20:53:00.833Z,6.79
2019-04-26T20:55:30.755Z,6.78
2019-04-26T20:57:54.737Z,6.78
2019-04-26T21:00:22.486Z,6.77
2019-04-26T21:02:49.237Z,6.77
2019-04-26T21:05:16.085Z,6.80
2019-04-26T21:07:49.422Z,6.82
2019-04-26T21:10:20.434Z,6.84
2019-04-26T21:12:41.763Z,6.86
2019-04-26T21:15:08.613Z,6.87
2019-04-26T21:17:35.324Z,6.87
2019-04-26T21:20:02.282Z,6.86
2019-04-26T21:22:29.032Z,6.86
2019-04-26T21:25:04.377Z,6.88
2019-04-26T21:27:47.244Z,6.90
2019-04-26T21:30:42.553Z,6.89
2019-04-26T21:33:14.214Z,6.82
2019-04-26T21:35:48.629Z,6.79
2019-04-26T21:38:43.991Z,6.74
2019-04-26T21:41:14.188Z,6.75
2019-04-26T21:43:41.137Z,6.80
2019-04-26T21:46:14.229Z,6.89
2019-04-26T21:48:37.395Z,6.98
2019-04-26T21:51:08.473Z,7.06
2019-04-26T21:53:34.501Z,7.11
2019-04-26T21:56:03.040Z,7.16
2019-04-26T21:58:29.835Z,7.20
2019-04-26T22:01:06.283Z,7.27
2019-04-26T22:03:32.935Z,7.31
2019-04-26T22:05:59.560Z,7.34
2019-04-26T22:08:29.552Z,7.36
2019-04-26T22:10:56.155Z,7.37
2019-04-26T22:13:26.303Z,7.38
2019-04-26T22:16:00.533Z,7.41
2019-04-26T22:18:33.127Z,7.44
2019-04-26T22:21:09.138Z,7.46
2019-04-26T22:23:58.050Z,7.47
2019-04-26T22:26:24.731Z,7.51
2019-04-26T22:28:51.355Z,7.50
2019-04-26T22:31:17.971Z,7.49
2019-04-26T22:33:44.726Z,7.48
2019-04-26T22:36:13.079Z,7.47
2019-04-26T22:38:39.914Z,7.47
2019-04-26T22:41:06.523Z,7.49
2019-04-26T22:43:55.252Z,7.51
2019-04-26T22:46:47.377Z,7.53
2019-04-26T22:49:13.198Z,7.59
2019-04-26T22:51:39.960Z,7.64
2019-04-26T22:54:06.684Z,7.68
2019-04-26T22:56:37.140Z,7.70
2019-04-26T22:59:04.834Z,7.69
2019-04-26T23:01:30.565Z,7.65
2019-04-26T23:03:57.264Z,7.65
2019-04-26T23:06:23.919Z,7.64
2019-04-26T23:08:50.529Z,7.64
2019-04-26T23:11:18.559Z,7.63
2019-04-26T23:14:17.762Z,7.64
2019-04-26T23:17:05.587Z,7.65
2019-04-26T23:20:05.828Z,7.65
2019-04-26T23:22:34.084Z,7.64
2019-04-26T23:25:01.170Z,7.65
2019-04-26T23:27:27.790Z,7.64
2019-04-26T23:29:57.366Z,7.59
2019-04-26T23:32:23.521Z,7.59
2019-04-26T23:34:50.245Z,7.61
2019-04-26T23:37:19.331Z,7.59
2019-04-26T23:39:49.806Z,7.62
2019-04-26T23:42:16.508Z,7.67
2019-04-26T23:44:44.061Z,7.69
2019-04-26T23:47:20.523Z,7.68
2019-04-26T23:49:39.311Z,7.69
2019-04-26T23:52:05.923Z,7.70
2019-04-26T23:54:35.832Z,7.72
2019-04-26T23:57:02.765Z,7.77
2019-04-26T23:59:29.568Z,7.83
